Time;durP1;ratioP1;P1;durP2;ratioP2;P2;SDS_P1;SDS_P2;PMS_P1;PMS_P2;Temp;Humidity;BMP_temperature;BMP_pressure;BME280_temperature;BME280_humidity;BME280_pressure;Samples;Min_cycle;Max_cycle;Signal;HPM_P1;HPM_P2
2021/03/31 00:00:34;;;;;;;9.18;5.38;;;;;;;13.78;54.98;101543.84;6189835;23;20310;-65
2021/03/31 00:03:07;;;;;;;11.25;5.22;;;;;;;13.74;55.29;101538.19;6189884;23;20079;-65
2021/03/31 00:05:32;;;;;;;17.23;5.93;;;;;;;13.70;54.18;101534.53;6164081;23;20009;-65
2021/03/31 00:07:57;;;;;;;13.50;5.78;;;;;;;13.67;53.61;101526.84;6189665;23;20428;-64
2021/03/31 00:10:34;;;;;;;11.75;6.00;;;;;;;13.63;53.95;101531.66;6189717;23;19997;-62
2021/03/31 00:12:59;;;;;;;16.30;7.82;;;;;;;13.62;53.52;101532.88;6189874;23;20264;-61
2021/03/31 00:15:24;;;;;;;16.05;8.35;;;;;;;13.61;55.19;101532.06;6189894;23;20285;-61
2021/03/31 00:17:50;;;;;;;16.60;8.15;;;;;;;13.62;54.86;101530.03;6190042;23;20377;-62
2021/03/31 00:20:16;;;;;;;16.90;7.72;;;;;;;13.62;55.34;101530.03;6189776;23;20012;-63
2021/03/31 00:22:42;;;;;;;20.67;8.32;;;;;;;13.60;56.05;101527.63;6188121;23;20282;-62
2021/03/31 00:25:10;;;;;;;20.63;8.68;;;;;;;13.59;55.09;101530.84;6188097;23;20076;-62
2021/03/31 00:27:35;;;;;;;27.30;9.93;;;;;;;13.56;55.01;101531.63;6161688;23;20016;-62
2021/03/31 00:30:01;;;;;;;26.42;8.93;;;;;;;13.53;55.04;101532.44;6188026;23;20273;-63
2021/03/31 00:32:26;;;;;;;17.05;7.20;;;;;;;13.52;56.97;101531.63;6188315;23;20001;-65
2021/03/31 00:34:52;;;;;;;13.27;7.07;;;;;;;13.49;56.87;101517.47;6188285;23;20005;-64
2021/03/31 00:37:17;;;;;;;11.70;6.78;;;;;;;13.45;55.78;101522.31;6188078;23;20055;-62
2021/03/31 00:39:42;;;;;;;11.77;6.30;;;;;;;13.42;55.49;101517.41;6187859;23;20001;-62
2021/03/31 00:42:08;;;;;;;13.63;6.97;;;;;;;13.39;56.16;101510.53;6188330;23;20001;-62
2021/03/31 00:44:33;;;;;;;15.10;8.32;;;;;;;13.37;56.25;101507.31;6188069;23;20040;-63
2021/03/31 00:46:59;;;;;;;11.52;7.22;;;;;;;13.37;57.57;101517.81;6188211;23;20035;-62
2021/03/31 00:49:24;;;;;;;19.95;8.95;;;;;;;13.37;56.68;101512.16;6188043;23;20430;-62
2021/03/31 00:51:49;;;;;;;14.50;7.70;;;;;;;13.38;56.88;101511.75;6188326;23;20009;-63
2021/03/31 00:54:16;;;;;;;14.48;7.70;;;;;;;13.43;56.74;101519.06;6187651;23;20063;-63
2021/03/31 00:56:41;;;;;;;13.68;7.80;;;;;;;13.44;56.62;101515.84;6188327;23;20358;-62
2021/03/31 00:59:07;;;;;;;19.90;8.90;;;;;;;13.43;57.12;101511.41;6188260;23;20001;-61
2021/03/31 01:01:32;;;;;;;16.85;8.68;;;;;;;13.43;56.99;101505.75;6188036;23;20059;-61
2021/03/31 01:03:58;;;;;;;15.02;8.30;;;;;;;13.45;57.30;101499.72;6188598;23;20079;-62
2021/03/31 01:06:23;;;;;;;12.55;7.15;;;;;;;13.45;56.79;101502.53;6188373;23;20005;-61
2021/03/31 01:08:49;;;;;;;16.15;7.65;;;;;;;13.47;56.92;101500.13;6187576;23;20000;-61
2021/03/31 01:11:24;;;;;;;9.00;6.05;;;;;;;13.48;56.56;101496.91;6188095;23;20358;-61
2021/03/31 01:14:05;;;;;;;11.43;6.32;;;;;;;13.49;56.73;101497.72;6188256;23;20009;-61
2021/03/31 01:16:59;;;;;;;17.50;7.35;;;;;;;13.49;56.48;101497.72;6187793;23;20012;-61
2021/03/31 01:19:27;;;;;;;10.80;7.15;;;;;;;13.46;55.93;101495.69;6186598;23;20028;-63
2021/03/31 01:22:17;;;;;;;11.55;6.65;;;;;;;13.45;56.45;101499.72;6162693;23;598405;-63
2021/03/31 01:25:07;;;;;;;13.05;7.43;;;;;;;13.47;56.83;101495.28;6188239;23;20136;-61
2021/03/31 01:27:46;;;;;;;16.67;7.72;;;;;;;13.46;56.58;101496.50;6189214;23;20064;-62
2021/03/31 01:30:28;;;;;;;15.57;8.60;;;;;;;13.45;56.00;101492.03;6163045;23;19997;-63
2021/03/31 01:33:02;;;;;;;;;;;;;;;13.42;56.47;101503.31;6189648;23;20065;-62
2021/03/31 01:35:29;;;;;;;11.75;6.95;;;;;;;13.38;57.23;101500.47;6189167;23;20231;-63
2021/03/31 01:38:00;;;;;;;10.32;7.07;;;;;;;13.33;56.84;101488.72;6189046;23;20242;-62
2021/03/31 01:40:27;;;;;;;13.15;6.95;;;;;;;13.26;56.55;101500.81;6188648;23;20012;-61
2021/03/31 01:43:03;;;;;;;14.48;8.07;;;;;;;13.16;56.88;101496.69;6188995;23;20040;-62
2021/03/31 01:45:31;;;;;;;17.13;7.70;;;;;;;13.10;56.73;101489.78;6189131;23;20005;-61
2021/03/31 01:47:59;;;;;;;10.70;7.00;;;;;;;13.08;57.45;101497.81;6188909;23;20062;-63
2021/03/31 01:50:25;;;;;;;11.55;6.20;;;;;;;13.10;57.31;101488.97;6188600;23;20080;-62
2021/03/31 01:52:51;;;;;;;9.43;6.93;;;;;;;13.11;57.30;101499.88;6189246;23;20036;-66
2021/03/31 01:55:17;;;;;;;11.52;7.07;;;;;;;13.08;58.21;101500.66;6188962;23;20041;-65
2021/03/31 01:57:44;;;;;;;10.40;6.82;;;;;;;13.04;58.30;101510.31;6189055;23;20330;-66
2021/03/31 02:00:14;;;;;;;12.30;7.65;;;;;;;13.00;58.03;101502.63;6188900;23;19997;-66
2021/03/31 02:02:43;;;;;;;11.40;7.55;;;;;;;12.98;58.18;101501.41;6188602;23;20024;-66
2021/03/31 02:05:11;;;;;;;16.65;7.93;;;;;;;12.98;58.29;101490.13;6162665;23;20009;-66
2021/03/31 02:07:38;;;;;;;11.18;7.32;;;;;;;12.99;59.09;101500.19;6188837;23;20044;-66
2021/03/31 02:10:05;;;;;;;10.73;7.63;;;;;;;12.99;58.41;101497.38;6188727;23;20059;-66
2021/03/31 02:12:31;;;;;;;15.75;8.27;;;;;;;13.00;58.99;101491.34;6189094;23;20009;-66
2021/03/31 02:14:57;;;;;;;14.73;8.10;;;;;;;12.99;59.50;101495.38;6162932;23;20036;-66
2021/03/31 02:17:26;;;;;;;12.55;7.97;;;;;;;12.98;59.37;101504.22;6188767;23;20001;-66
2021/03/31 02:19:52;;;;;;;11.63;8.60;;;;;;;12.95;59.38;101519.94;6188518;23;20080;-65
2021/03/31 02:22:21;;;;;;;14.95;8.35;;;;;;;12.91;59.95;101507.00;6188472;23;20370;-66
2021/03/31 02:24:47;;;;;;;14.45;9.23;;;;;;;12.85;59.86;101509.34;6188641;23;20404;-66
2021/03/31 02:27:14;;;;;;;16.92;8.55;;;;;;;12.80;60.04;101508.91;6188920;23;20001;-66
2021/03/31 02:29:40;;;;;;;17.30;10.38;;;;;;;12.76;60.83;101508.09;6188892;23;20004;-66
2021/03/31 02:32:08;;;;;;;16.60;8.63;;;;;;;12.75;60.04;101509.28;6188608;23;20001;-65
2021/03/31 02:34:35;;;;;;;15.00;9.23;;;;;;;12.74;59.94;101514.13;6188681;23;20032;-66
2021/03/31 02:37:03;;;;;;;15.85;8.45;;;;;;;12.75;59.92;101506.47;6188815;23;20366;-65
2021/03/31 02:39:29;;;;;;;20.45;9.20;;;;;;;12.75;59.94;101514.91;6188599;23;20028;-62
2021/03/31 02:41:56;;;;;;;14.00;8.20;;;;;;;12.72;60.77;101508.06;6189006;23;20009;-62
2021/03/31 02:44:22;;;;;;;13.35;8.07;;;;;;;12.71;60.72;101508.44;6162734;23;20385;-62
2021/03/31 02:46:50;;;;;;;12.00;7.93;;;;;;;12.68;60.26;101510.03;6188605;23;20036;-61
2021/03/31 02:49:18;;;;;;;20.15;9.00;;;;;;;12.64;60.76;101509.22;6188518;23;20239;-61
2021/03/31 02:51:46;;;;;;;12.00;6.80;;;;;;;12.60;60.84;101512.00;6189739;23;20083;-60
2021/03/31 02:54:13;;;;;;;17.65;9.45;;;;;;;12.58;60.45;101511.53;6190579;23;20009;-61
2021/03/31 02:56:40;;;;;;;25.17;14.55;;;;;;;12.56;59.97;101510.31;6190743;23;20039;-61
2021/03/31 02:59:06;;;;;;;34.90;19.25;;;;;;;12.56;60.02;101513.13;6190490;23;20013;-64
2021/03/31 03:01:32;;;;;;;38.25;19.55;;;;;;;12.56;60.26;101513.94;6190543;23;20040;-65
2021/03/31 03:03:58;;;;;;;31.15;16.85;;;;;;;12.56;59.97;101508.31;6190466;23;20008;-65
2021/03/31 03:06:25;;;;;;;22.00;12.57;;;;;;;12.54;59.94;101501.44;6190485;23;20001;-65
2021/03/31 03:08:54;;;;;;;23.13;11.25;;;;;;;12.51;60.09;101505.84;6164239;23;20164;-65
2021/03/31 03:11:21;;;;;;;25.45;11.20;;;;;;;12.52;59.47;101496.19;6190703;23;20001;-65
2021/03/31 03:13:47;;;;;;;27.45;11.95;;;;;;;12.53;59.31;101495.00;6190456;23;20040;-61
2021/03/31 03:16:14;;;;;;;21.55;10.88;;;;;;;12.57;59.32;101492.19;6190410;23;20001;-61
2021/03/31 03:18:39;;;;;;;20.73;9.98;;;;;;;12.60;59.52;101486.63;6190382;23;20084;-61
2021/03/31 03:21:05;;;;;;;24.38;10.65;;;;;;;12.59;59.66;101499.06;6190176;23;20099;-61
2021/03/31 03:23:31;;;;;;;17.52;9.60;;;;;;;12.58;60.59;101491.81;6190044;23;20016;-61
2021/03/31 03:25:59;;;;;;;19.20;9.88;;;;;;;12.56;60.63;101491.38;6164324;23;20013;-61
2021/03/31 03:28:26;;;;;;;18.98;10.65;;;;;;;12.55;60.43;101491.78;6190452;23;20032;-61
2021/03/31 03:30:53;;;;;;;23.88;12.82;;;;;;;12.54;60.24;101492.97;6190221;23;20009;-61
2021/03/31 03:33:20;;;;;;;23.20;13.77;;;;;;;12.48;60.42;101484.06;6190154;23;20096;-61
2021/03/31 03:35:46;;;;;;;27.55;15.65;;;;;;;12.43;60.20;101481.63;6190356;23;20001;-61
2021/03/31 03:38:13;;;;;;;24.90;15.18;;;;;;;12.39;60.06;101483.59;6190243;23;20015;-61
2021/03/31 03:40:39;;;;;;;26.33;14.60;;;;;;;12.36;60.40;101476.72;6190275;23;20100;-61
2021/03/31 03:43:06;;;;;;;23.45;13.45;;;;;;;12.31;60.31;101479.06;6190071;23;20269;-61
2021/03/31 03:45:32;;;;;;;22.05;12.85;;;;;;;12.29;59.99;101476.63;6190251;23;20250;-61
2021/03/31 03:47:58;;;;;;;21.67;13.43;;;;;;;12.29;60.49;101473.00;6189817;23;20005;-61
2021/03/31 03:50:23;;;;;;;18.25;12.55;;;;;;;12.27;60.28;101483.88;6190243;23;20008;-61
2021/03/31 03:52:50;;;;;;;26.88;13.18;;;;;;;12.26;60.50;101476.63;6190224;23;20081;-62
2021/03/31 03:55:20;;;;;;;22.35;12.88;;;;;;;12.29;60.56;101475.81;6190110;23;20016;-61
2021/03/31 03:57:46;;;;;;;22.30;13.38;;;;;;;12.29;60.59;101475.81;6189941;23;20032;-61
2021/03/31 04:00:18;;;;;;;19.27;12.05;;;;;;;12.25;60.06;101472.16;6163792;23;20063;-65
2021/03/31 04:02:43;;;;;;;23.63;12.95;;;;;;;12.21;60.67;101469.31;6189724;23;20012;-64
2021/03/31 04:05:10;;;;;;;23.08;13.13;;;;;;;12.22;60.39;101472.94;6190047;23;20028;-64
2021/03/31 04:07:35;;;;;;;19.80;13.15;;;;;;;12.21;61.06;101472.13;6189971;23;20377;-63
2021/03/31 04:10:01;;;;;;;31.13;13.55;;;;;;;12.21;61.68;101472.13;6189843;23;20001;-65
2021/03/31 04:12:28;;;;;;;22.10;13.07;;;;;;;12.19;61.23;101470.91;6189838;23;20012;-64
2021/03/31 04:14:54;;;;;;;19.98;13.15;;;;;;;12.21;61.02;101468.50;6189976;23;20008;-61
2021/03/31 04:17:20;;;;;;;22.83;11.73;;;;;;;12.23;61.11;101466.13;6189469;23;20097;-64
2021/03/31 04:19:48;;;;;;;21.58;9.90;;;;;;;12.28;60.94;101471.38;6189886;23;20005;-62
2021/03/31 04:22:14;;;;;;;22.73;9.25;;;;;;;12.30;61.19;101474.63;6189594;23;20075;-65
2021/03/31 04:24:39;;;;;;;21.42;9.07;;;;;;;12.34;61.06;101473.50;6163718;23;20009;-64
2021/03/31 04:27:09;;;;;;;18.77;10.32;;;;;;;12.33;61.74;101474.69;6190037;23;20235;-65
2021/03/31 04:29:36;;;;;;;22.08;9.90;;;;;;;12.26;62.11;101482.25;6189752;23;20029;-66
2021/03/31 04:32:02;;;;;;;31.33;10.45;;;;;;;12.21;61.46;101485.44;6188993;23;20412;-64
2021/03/31 04:34:28;;;;;;;30.88;10.07;;;;;;;12.16;61.98;101483.78;6189837;23;20005;-65
2021/03/31 04:36:54;;;;;;;19.95;8.75;;;;;;;12.11;62.04;101481.31;6189705;23;20258;-65
2021/03/31 04:39:22;;;;;;;28.42;9.95;;;;;;;12.07;62.83;101492.56;6189294;23;20012;-66
2021/03/31 04:41:48;;;;;;;19.42;9.43;;;;;;;12.03;62.54;101488.06;6189459;23;20393;-65
2021/03/31 04:44:13;;;;;;;27.45;9.20;;;;;;;12.01;62.67;101485.63;6189386;23;20005;-66
2021/03/31 04:46:38;;;;;;;25.90;9.57;;;;;;;12.02;63.18;101489.25;6189496;23;20350;-64
2021/03/31 04:49:04;;;;;;;29.75;9.95;;;;;;;12.00;62.82;101489.63;6189901;23;20001;-64
2021/03/31 04:51:29;;;;;;;18.90;10.05;;;;;;;11.98;62.76;101489.22;6189775;23;20439;-65
2021/03/31 04:53:54;;;;;;;24.02;10.50;;;;;;;11.96;63.12;101488.78;6189568;23;20010;-64
2021/03/31 04:56:20;;;;;;;23.15;10.00;;;;;;;11.97;63.15;101489.59;6189448;23;20001;-64
2021/03/31 04:58:45;;;;;;;21.33;8.50;;;;;;;12.00;62.75;101492.44;6189265;23;20005;-65
2021/03/31 05:01:10;;;;;;;17.08;8.95;;;;;;;12.03;62.61;101491.69;6189467;23;20084;-64
2021/03/31 05:03:36;;;;;;;27.70;9.55;;;;;;;12.09;62.60;101494.16;6189233;23;20025;-63
2021/03/31 05:06:01;;;;;;;18.90;9.98;;;;;;;12.13;62.10;101500.66;6189263;23;20005;-65
2021/03/31 05:08:26;;;;;;;35.55;19.75;;;;;;;12.17;61.38;101496.66;6189671;23;20001;-65
2021/03/31 05:10:52;;;;;;;39.10;21.40;;;;;;;12.20;61.55;101490.25;6189028;23;20262;-64
2021/03/31 05:13:17;;;;;;;22.27;14.70;;;;;;;12.24;61.10;101479.00;6188433;23;20078;-64
2021/03/31 05:15:43;;;;;;;30.33;18.63;;;;;;;12.27;61.38;101481.06;6189192;23;20001;-66
2021/03/31 05:18:08;;;;;;;27.80;12.63;;;;;;;12.28;60.77;101482.66;6189470;23;20435;-64
2021/03/31 05:20:34;;;;;;;39.78;12.10;;;;;;;12.28;61.08;101485.50;6189027;23;20084;-65
2021/03/31 05:23:00;;;;;;;22.48;12.05;;;;;;;12.31;61.02;101482.69;6189041;23;20021;-66
2021/03/31 05:25:25;;;;;;;29.10;17.60;;;;;;;12.33;60.71;101469.06;6189490;23;20016;-67
2021/03/31 05:27:51;;;;;;;33.85;19.83;;;;;;;12.36;60.61;101482.38;6188904;23;20059;-66
2021/03/31 05:30:17;;;;;;;40.92;20.65;;;;;;;12.35;61.07;101494.03;6189189;23;20001;-66
2021/03/31 05:32:42;;;;;;;46.03;22.42;;;;;;;12.34;61.80;101486.78;6189065;23;20052;-67
2021/03/31 05:35:08;;;;;;;47.63;20.20;;;;;;;12.33;61.75;101485.97;6189026;23;20001;-67
2021/03/31 05:37:35;;;;;;;38.85;20.15;;;;;;;12.34;61.93;101495.25;6188357;23;20246;-66
2021/03/31 05:40:00;;;;;;;37.88;20.75;;;;;;;12.37;61.76;101495.25;6188676;23;20009;-65
2021/03/31 05:42:26;;;;;;;48.38;22.25;;;;;;;12.42;61.60;101496.91;6188538;23;20381;-66
2021/03/31 05:44:51;;;;;;;35.03;20.20;;;;;;;12.49;61.53;101491.34;6188713;23;20016;-66
2021/03/31 05:47:28;;;;;;;41.95;21.27;;;;;;;12.54;61.29;101501.44;6189172;23;20005;-65
2021/03/31 05:49:54;;;;;;;55.90;27.75;;;;;;;12.58;60.99;101500.25;6188896;23;20068;-67
2021/03/31 05:52:22;;;;;;;44.33;22.65;;;;;;;12.62;60.81;101509.59;6189043;23;20024;-66
2021/03/31 05:54:47;;;;;;;37.30;19.98;;;;;;;12.66;60.74;101506.81;6188998;23;20266;-64
2021/03/31 05:57:13;;;;;;;24.90;15.48;;;;;;;12.66;60.72;101507.59;6188508;23;20008;-66
2021/03/31 05:59:39;;;;;;;24.65;13.35;;;;;;;12.67;61.17;101500.78;6189296;23;20380;-66
2021/03/31 06:02:10;;;;;;;24.92;14.00;;;;;;;12.68;60.80;101504.41;6188843;23;20005;-65
2021/03/31 06:04:36;;;;;;;;;;;;;;;12.68;60.81;101505.22;6189489;23;20080;-66
2021/03/31 06:07:03;;;;;;;30.98;15.25;;;;;;;12.69;60.55;101509.66;6187440;23;20287;-65
2021/03/31 06:09:28;;;;;;;29.38;15.57;;;;;;;12.71;60.03;101508.44;6188895;23;20017;-66
2021/03/31 06:11:59;;;;;;;33.83;16.38;;;;;;;12.72;59.46;101501.59;6188553;23;20005;-66
2021/03/31 06:14:36;;;;;;;39.17;20.63;;;;;;;12.74;60.44;101505.66;6188928;23;20266;-67
2021/03/31 06:17:13;;;;;;;37.95;18.67;;;;;;;12.78;60.47;101509.31;6188938;23;20021;-65
2021/03/31 06:19:41;;;;;;;39.20;18.40;;;;;;;12.81;60.63;101502.06;6188838;23;20080;-64
2021/03/31 06:24:45;;;;;;;25.10;15.48;;;;;;;12.92;60.10;101498.16;6189168;23;20024;-66
2021/03/31 06:27:13;;;;;;;30.55;17.13;;;;;;;12.99;59.62;101503.03;6163942;23;20378;-66
2021/03/31 06:29:44;;;;;;;36.45;16.95;;;;;;;13.05;59.83;101501.44;6190905;23;19996;-65
2021/03/31 06:32:18;;;;;;;50.28;17.55;;;;;;;13.11;59.49;101504.69;6190792;23;20274;-68
2021/03/31 06:34:56;;;;;;;41.10;17.00;;;;;;;13.22;58.79;101506.44;6190804;23;20005;-61
2021/03/31 06:37:23;;;;;;;34.22;15.60;;;;;;;13.26;59.42;101501.63;6190754;23;20091;-61
2021/03/31 06:39:51;;;;;;;35.72;13.48;;;;;;;13.28;59.08;101507.69;6190846;23;20243;-61
2021/03/31 06:42:24;;;;;;;34.25;10.85;;;;;;;13.32;58.68;101498.41;6190731;23;20032;-63
2021/03/31 06:50:08;;;;;;;21.15;11.68;;;;;;;13.39;58.14;101496.44;6200919;23;20009;-60
2021/03/31 06:52:34;;;;;;;19.05;13.48;;;;;;;13.41;58.40;101490.38;6190710;23;20113;-60
2021/03/31 06:55:04;;;;;;;19.40;11.60;;;;;;;13.44;58.29;101483.97;6190509;23;20010;-61
2021/03/31 06:57:34;;;;;;;15.73;10.40;;;;;;;13.44;57.65;101492.44;6190046;23;20009;-67
2021/03/31 06:59:59;;;;;;;15.35;9.20;;;;;;;13.47;57.25;101480.34;6190231;23;20384;-64
2021/03/31 07:02:27;;;;;;;15.80;8.45;;;;;;;13.49;57.92;101477.94;6190065;23;20001;-64
2021/03/31 07:04:54;;;;;;;16.70;8.10;;;;;;;13.55;57.65;101482.00;6190273;23;20012;-66
2021/03/31 07:07:46;;;;;;;16.20;8.30;;;;;;;13.61;56.87;101483.22;6190116;23;20365;-60
2021/03/31 07:10:15;;;;;;;;;;;;;;;13.67;56.83;101478.81;6190529;23;20013;-61
2021/03/31 07:12:48;;;;;;;14.32;7.78;;;;;;;13.75;55.82;101486.13;6190798;23;19908;-61
2021/03/31 07:15:16;;;;;;;20.00;8.48;;;;;;;13.83;56.37;101484.94;6163992;23;20361;-62
2021/03/31 07:17:46;;;;;;;16.15;8.20;;;;;;;13.92;56.30;101493.81;6190479;23;20255;-62
2021/03/31 07:20:12;;;;;;;14.27;8.57;;;;;;;14.03;56.91;101488.22;6190331;23;20058;-61
2021/03/31 07:22:37;;;;;;;19.38;8.98;;;;;;;14.16;55.97;101488.63;6189835;23;20021;-61
2021/03/31 07:25:04;;;;;;;17.00;8.07;;;;;;;14.23;55.64;101480.97;6190210;23;20008;-62
2021/03/31 07:27:31;;;;;;;12.65;7.80;;;;;;;14.31;54.44;101486.66;6190233;23;20088;-61
2021/03/31 07:30:09;;;;;;;18.33;8.73;;;;;;;14.37;55.36;101485.84;6190222;23;19997;-61
2021/03/31 07:33:03;;;;;;;14.07;7.70;;;;;;;14.45;54.06;101473.34;6190304;23;20080;-65
2021/03/31 07:35:33;;;;;;;15.27;8.00;;;;;;;14.51;54.52;101480.22;6190462;23;20001;-62
2021/03/31 07:38:04;;;;;;;17.65;8.68;;;;;;;14.58;55.00;101478.63;6190176;23;20001;-61
2021/03/31 07:40:32;;;;;;;15.45;8.57;;;;;;;14.64;56.25;101488.31;6163842;23;20016;-62
2021/03/31 07:43:23;;;;;;;16.00;9.27;;;;;;;14.68;53.66;101489.13;6190111;23;20079;-62
2021/03/31 07:45:56;;;;;;;21.75;11.85;;;;;;;14.74;53.89;101488.31;6155545;23;20354;-62
2021/03/31 07:48:22;;;;;;;16.33;9.15;;;;;;;14.80;53.64;101483.06;6190182;23;20009;-62
2021/03/31 07:50:48;;;;;;;19.90;9.05;;;;;;;14.88;56.05;101490.34;6190336;23;20343;-62
2021/03/31 07:53:14;;;;;;;15.25;9.48;;;;;;;14.95;55.03;101489.53;6189630;23;20033;-62
2021/03/31 07:55:48;;;;;;;15.07;8.80;;;;;;;15.01;53.85;101485.88;6190052;23;20005;-63
2021/03/31 07:58:16;;;;;;;18.67;8.45;;;;;;;15.09;55.86;101487.50;6189790;23;20005;-62
2021/03/31 08:00:44;;;;;;;18.25;8.65;;;;;;;15.14;52.27;101489.91;6189842;23;20009;-68
2021/03/31 08:03:12;;;;;;;14.20;8.20;;;;;;;15.21;53.08;101489.06;6190215;23;20021;-66
2021/03/31 08:06:06;;;;;;;24.58;8.90;;;;;;;15.27;52.29;101486.63;6189734;23;20024;-67
2021/03/31 08:08:33;;;;;;;27.60;9.48;;;;;;;15.32;52.12;101480.53;6189700;23;20005;-65
2021/03/31 08:11:01;;;;;;;20.80;8.80;;;;;;;15.38;52.28;101478.91;6189944;23;20080;-63
2021/03/31 08:13:35;;;;;;;20.92;8.85;;;;;;;15.44;52.35;101480.09;6190047;23;20012;-62
2021/03/31 08:16:25;;;;;;;15.98;7.05;;;;;;;15.54;52.29;101484.09;6189799;23;20388;-62
2021/03/31 08:18:54;;;;;;;12.18;7.03;;;;;;;15.66;53.27;101481.69;6189726;23;20011;-62
2021/03/31 08:21:24;;;;;;;18.70;8.25;;;;;;;15.82;53.00;101486.03;6189435;23;20024;-62
2021/03/31 08:23:52;;;;;;;14.50;7.93;;;;;;;15.94;52.47;101485.59;6189601;23;20008;-62
2021/03/31 08:26:30;;;;;;;15.43;8.80;;;;;;;16.04;52.08;101481.88;6189628;23;20007;-62
2021/03/31 08:28:57;;;;;;;21.05;10.02;;;;;;;16.13;51.23;101482.22;6189706;23;20004;-62
2021/03/31 08:31:27;;;;;;;18.67;8.60;;;;;;;16.20;50.48;101479.34;6189700;23;20008;-65
2021/03/31 08:33:52;;;;;;;13.23;6.65;;;;;;;16.28;50.38;101483.75;6189613;23;20009;-65
2021/03/31 08:36:18;;;;;;;13.35;6.82;;;;;;;16.35;51.02;101471.53;6188885;23;20047;-66
2021/03/31 08:39:04;;;;;;;10.45;5.70;;;;;;;16.42;50.77;101476.34;6189357;23;20001;-66
2021/03/31 08:41:30;;;;;;;13.68;6.90;;;;;;;16.48;50.30;101471.88;6189222;23;20009;-64
2021/03/31 08:44:16;;;;;;;11.30;5.82;;;;;;;16.55;50.83;101480.31;6189288;23;20313;-62
2021/03/31 08:46:42;;;;;;;14.40;7.53;;;;;;;16.61;50.50;101468.09;6189355;23;20203;-62
2021/03/31 08:49:40;;;;;;;11.88;6.88;;;;;;;16.71;50.58;101471.28;6189270;23;20368;-62
2021/03/31 08:52:08;;;;;;;11.48;6.45;;;;;;;16.79;50.42;101461.50;6171096;23;20397;-62
2021/03/31 08:54:42;;;;;;;15.43;6.45;;;;;;;16.89;50.67;101463.41;6189356;23;20000;-62
2021/03/31 08:57:15;;;;;;;15.30;7.13;;;;;;;16.99;50.46;101454.81;6189285;23;20108;-62
2021/03/31 08:59:44;;;;;;;17.15;8.00;;;;;;;17.08;50.14;101468.50;6189491;23;20055;-62
2021/03/31 09:02:12;;;;;;;15.55;7.05;;;;;;;17.19;50.56;101463.50;6189604;23;20029;-62
2021/03/31 09:04:37;;;;;;;16.63;7.45;;;;;;;17.28;50.38;101460.19;6163115;23;20005;-62
2021/03/31 09:07:08;;;;;;;12.30;6.25;;;;;;;17.39;50.09;101458.00;6189127;23;20392;-62
2021/03/31 09:09:36;;;;;;;11.77;5.80;;;;;;;17.48;49.94;101451.81;6189404;23;20001;-62
2021/03/31 09:12:05;;;;;;;8.70;5.90;;;;;;;17.54;49.83;101453.78;6189304;23;20013;-62
2021/03/31 09:14:31;;;;;;;15.88;6.85;;;;;;;17.61;49.48;101448.00;6189790;23;20004;-62
2021/03/31 09:17:01;;;;;;;11.90;6.78;;;;;;;17.68;48.59;101452.00;6188582;23;20001;-62
2021/03/31 09:19:29;;;;;;;12.80;6.70;;;;;;;17.71;49.16;101451.94;6188954;23;20448;-63
2021/03/31 09:21:55;;;;;;;16.10;6.15;;;;;;;17.77;50.62;101444.53;6188756;23;20072;-62
2021/03/31 09:24:23;;;;;;;11.93;6.53;;;;;;;17.82;49.62;101449.78;6189077;23;20009;-63
2021/03/31 09:27:03;;;;;;;18.80;7.03;;;;;;;17.86;48.22;101450.53;6189477;23;20005;-63
2021/03/31 09:29:29;;;;;;;12.32;7.45;;;;;;;17.90;48.21;101439.09;6189531;23;20032;-62
2021/03/31 09:31:58;;;;;;;13.10;6.72;;;;;;;17.92;48.21;101443.13;6189356;23;20060;-65
2021/03/31 09:34:24;;;;;;;15.73;7.15;;;;;;;17.94;47.58;101445.53;6162885;23;20016;-65
2021/03/31 09:37:13;;;;;;;14.25;7.13;;;;;;;17.97;48.35;101432.50;6163070;23;20059;-62
2021/03/31 09:39:42;;;;;;;18.42;6.95;;;;;;;17.98;47.72;101434.91;6189117;23;20397;-65
2021/03/31 09:42:07;;;;;;;11.80;6.55;;;;;;;17.98;48.08;101429.22;6189493;23;20029;-66
2021/03/31 09:44:33;;;;;;;15.63;7.28;;;;;;;18.01;48.29;101433.25;6162906;23;20083;-66
2021/03/31 09:47:00;;;;;;;10.80;5.80;;;;;;;18.02;48.89;101429.97;6189083;23;20032;-66
2021/03/31 09:49:27;;;;;;;11.48;6.63;;;;;;;18.05;48.35;101429.09;6189000;23;19997;-65
2021/03/31 09:51:52;;;;;;;14.60;7.07;;;;;;;18.08;48.53;101422.59;6188857;23;20008;-66
2021/03/31 09:54:19;;;;;;;11.20;7.10;;;;;;;18.12;48.17;101428.22;6189023;23;20031;-66
2021/03/31 09:56:45;;;;;;;13.35;7.32;;;;;;;18.14;48.41;101420.84;6189083;23;20059;-62
2021/03/31 09:59:11;;;;;;;20.55;8.30;;;;;;;18.12;48.17;101420.50;6188792;23;20008;-62
2021/03/31 10:01:38;;;;;;;14.95;7.85;;;;;;;18.12;48.51;101411.94;6188783;23;20028;-62
2021/03/31 10:04:04;;;;;;;17.02;9.15;;;;;;;18.14;47.84;101420.84;6188684;23;20027;-62
2021/03/31 10:06:29;;;;;;;11.82;7.75;;;;;;;18.19;48.26;101414.69;6189459;23;20008;-62
2021/03/31 10:08:54;;;;;;;12.93;7.85;;;;;;;18.22;48.51;101405.28;6188577;23;20262;-62
2021/03/31 10:11:33;;;;;;;11.13;7.75;;;;;;;18.28;48.01;101421.84;6188854;23;20055;-62
2021/03/31 10:14:01;;;;;;;13.10;8.02;;;;;;;18.31;48.10;101407.56;6188547;23;20001;-65
2021/03/31 10:16:35;;;;;;;10.55;6.97;;;;;;;18.35;48.60;101419.72;6188407;23;20016;-62
2021/03/31 10:19:02;;;;;;;12.90;7.38;;;;;;;18.38;47.88;101396.09;6188463;23;20001;-62
2021/03/31 10:21:36;;;;;;;12.60;7.28;;;;;;;18.42;48.12;101407.41;6188566;23;20017;-62
2021/03/31 10:24:03;;;;;;;11.55;6.47;;;;;;;18.45;47.51;101395.94;6188734;23;20317;-62
2021/03/31 10:26:30;;;;;;;17.98;9.52;;;;;;;18.49;46.95;101395.88;6188801;23;20270;-62
2021/03/31 10:28:57;;;;;;;14.95;7.50;;;;;;;18.54;48.31;101389.69;6188541;23;20012;-62
2021/03/31 10:31:39;;;;;;;9.45;6.45;;;;;;;18.60;47.94;101393.63;6188716;23;20001;-62
2021/03/31 10:34:05;;;;;;;;;;;;;;;18.63;47.58;101387.13;6188654;23;20076;-62
2021/03/31 10:50:38;;;;;;;17.70;8.90;;;;;;;18.83;46.84;101365.16;6188503;23;20005;-62
2021/03/31 10:53:04;;;;;;;12.75;8.07;;;;;;;18.88;47.87;101358.16;6188568;23;20413;-62
2021/03/31 10:55:30;;;;;;;15.02;8.05;;;;;;;18.96;47.84;101356.78;6189070;23;20063;-63
2021/03/31 10:57:55;;;;;;;14.77;7.28;;;;;;;19.07;47.57;101351.69;6188747;23;20056;-62
2021/03/31 11:00:21;;;;;;;11.55;6.88;;;;;;;19.16;47.13;101348.22;6188320;23;20353;-62
2021/03/31 11:02:46;;;;;;;10.10;6.75;;;;;;;19.28;47.92;101350.44;6188507;23;20008;-62
2021/03/31 11:05:12;;;;;;;13.65;6.78;;;;;;;19.38;47.13;101343.69;6188474;23;20044;-62
2021/03/31 11:07:37;;;;;;;10.30;6.82;;;;;;;19.49;46.75;101354.88;6188376;23;20005;-62
2021/03/31 11:10:04;;;;;;;9.65;6.93;;;;;;;19.54;46.91;101339.31;6188476;23;19997;-62
2021/03/31 11:12:29;;;;;;;10.63;6.93;;;;;;;19.59;46.71;101347.34;6189216;23;20001;-62
2021/03/31 11:14:55;;;;;;;14.20;7.30;;;;;;;19.62;46.34;101340.75;6190386;23;20124;-62
2021/03/31 11:17:44;;;;;;;10.82;7.10;;;;;;;19.64;46.03;101329.69;6189874;23;20275;-62
2021/03/31 11:25:48;;;;;;;10.23;6.32;;;;;;;19.68;46.24;101322.66;6100267;23;20046;-63
2021/03/31 11:28:14;;;;;;;12.70;6.10;;;;;;;19.74;46.10;101311.56;6099496;23;20017;-62
2021/03/31 11:30:39;;;;;;;14.57;6.78;;;;;;;19.80;46.17;101308.97;6146861;23;20013;-62
2021/03/31 11:33:05;;;;;;;9.25;6.53;;;;;;;19.85;46.39;101309.22;6163494;23;20309;-62
2021/03/31 11:35:30;;;;;;;14.18;6.97;;;;;;;19.92;46.63;101309.06;6190396;23;20012;-62
2021/03/31 11:37:55;;;;;;;11.25;6.47;;;;;;;19.94;45.93;101294.34;6190291;23;20035;-62
2021/03/31 11:40:21;;;;;;;13.25;6.82;;;;;;;19.97;46.41;101291.38;6190016;23;20009;-63
2021/03/31 11:42:47;;;;;;;11.50;6.43;;;;;;;20.02;46.22;101295.78;6189796;23;20020;-63
2021/03/31 11:45:13;;;;;;;12.27;6.40;;;;;;;20.06;45.91;101296.50;6189640;23;20052;-62
2021/03/31 11:47:38;;;;;;;11.13;7.15;;;;;;;20.11;46.27;101286.59;6189932;23;20001;-63
2021/03/31 11:50:04;;;;;;;9.70;6.63;;;;;;;20.13;45.89;101286.94;6190036;23;20012;-62